sensor_id;sensor_type;location;lat;lon;timestamp;P1;durP1;ratioP1;P2;durP2;ratioP2
64387;SDS011;50709;52.648;4.764;2023-09-12T00:00:19;41.47;;;22.30;;
64387;SDS011;50709;52.648;4.764;2023-09-12T00:02:44;44.08;;;23.05;;
64387;SDS011;50709;52.648;4.764;2023-09-12T00:05:09;39.13;;;21.35;;
64387;SDS011;50709;52.648;4.764;2023-09-12T00:07:35;40.83;;;21.98;;
64387;SDS011;50709;52.648;4.764;2023-09-12T00:10:01;39.10;;;21.95;;
64387;SDS011;50709;52.648;4.764;2023-09-12T00:12:27;39.42;;;21.85;;
64387;SDS011;50709;52.648;4.764;2023-09-12T00:14:52;42.90;;;22.88;;
64387;SDS011;50709;52.648;4.764;2023-09-12T00:17:18;41.20;;;21.58;;
64387;SDS011;50709;52.648;4.764;2023-09-12T00:19:44;39.63;;;21.63;;
64387;SDS011;50709;52.648;4.764;2023-09-12T00:22:09;39.72;;;22.38;;
64387;SDS011;50709;52.648;4.764;2023-09-12T00:24:34;41.90;;;22.10;;
64387;SDS011;50709;52.648;4.764;2023-09-12T00:27:00;39.97;;;21.92;;
64387;SDS011;50709;52.648;4.764;2023-09-12T00:29:25;37.03;;;20.88;;
64387;SDS011;50709;52.648;4.764;2023-09-12T00:31:51;39.15;;;21.52;;
64387;SDS011;50709;52.648;4.764;2023-09-12T00:34:16;35.70;;;20.38;;
64387;SDS011;50709;52.648;4.764;2023-09-12T00:36:42;36.22;;;20.95;;
64387;SDS011;50709;52.648;4.764;2023-09-12T00:39:08;41.58;;;21.70;;
64387;SDS011;50709;52.648;4.764;2023-09-12T00:41:33;36.17;;;19.65;;
64387;SDS011;50709;52.648;4.764;2023-09-12T00:43:59;37.15;;;20.90;;
64387;SDS011;50709;52.648;4.764;2023-09-12T00:46:24;38.38;;;21.85;;
64387;SDS011;50709;52.648;4.764;2023-09-12T00:48:51;37.53;;;20.08;;
64387;SDS011;50709;52.648;4.764;2023-09-12T00:51:18;41.58;;;21.95;;
64387;SDS011;50709;52.648;4.764;2023-09-12T00:53:46;37.15;;;20.92;;
64387;SDS011;50709;52.648;4.764;2023-09-12T00:56:12;39.97;;;21.40;;
64387;SDS011;50709;52.648;4.764;2023-09-12T00:58:38;40.63;;;21.65;;
64387;SDS011;50709;52.648;4.764;2023-09-12T01:01:04;44.80;;;22.77;;
64387;SDS011;50709;52.648;4.764;2023-09-12T01:03:29;42.60;;;21.67;;
64387;SDS011;50709;52.648;4.764;2023-09-12T01:05:56;40.35;;;22.83;;
64387;SDS011;50709;52.648;4.764;2023-09-12T01:08:23;38.70;;;21.40;;
64387;SDS011;50709;52.648;4.764;2023-09-12T01:10:49;41.72;;;22.17;;
64387;SDS011;50709;52.648;4.764;2023-09-12T01:13:18;38.00;;;21.35;;
64387;SDS011;50709;52.648;4.764;2023-09-12T01:15:44;38.75;;;21.45;;
64387;SDS011;50709;52.648;4.764;2023-09-12T01:18:09;41.38;;;20.83;;
64387;SDS011;50709;52.648;4.764;2023-09-12T01:20:36;39.85;;;21.80;;
64387;SDS011;50709;52.648;4.764;2023-09-12T01:28:44;39.30;;;21.15;;
64387;SDS011;50709;52.648;4.764;2023-09-12T01:31:10;40.10;;;21.38;;
64387;SDS011;50709;52.648;4.764;2023-09-12T01:33:37;39.17;;;21.15;;
64387;SDS011;50709;52.648;4.764;2023-09-12T01:36:02;42.25;;;21.48;;
64387;SDS011;50709;52.648;4.764;2023-09-12T01:38:28;43.38;;;23.08;;
64387;SDS011;50709;52.648;4.764;2023-09-12T01:40:54;41.42;;;22.73;;
64387;SDS011;50709;52.648;4.764;2023-09-12T01:43:24;40.05;;;21.90;;
64387;SDS011;50709;52.648;4.764;2023-09-12T01:45:55;37.47;;;21.50;;
64387;SDS011;50709;52.648;4.764;2023-09-12T01:48:24;42.40;;;21.73;;
64387;SDS011;50709;52.648;4.764;2023-09-12T01:50:51;39.25;;;21.27;;
64387;SDS011;50709;52.648;4.764;2023-09-12T01:53:17;40.50;;;21.58;;
64387;SDS011;50709;52.648;4.764;2023-09-12T01:55:44;40.67;;;21.38;;
64387;SDS011;50709;52.648;4.764;2023-09-12T01:58:11;40.15;;;21.25;;
64387;SDS011;50709;52.648;4.764;2023-09-12T02:00:37;38.63;;;20.50;;
64387;SDS011;50709;52.648;4.764;2023-09-12T02:03:04;39.05;;;20.52;;
64387;SDS011;50709;52.648;4.764;2023-09-12T02:05:30;37.10;;;20.95;;
64387;SDS011;50709;52.648;4.764;2023-09-12T02:07:55;39.53;;;21.00;;
64387;SDS011;50709;52.648;4.764;2023-09-12T02:10:21;38.42;;;21.67;;
64387;SDS011;50709;52.648;4.764;2023-09-12T02:12:46;38.28;;;19.52;;
64387;SDS011;50709;52.648;4.764;2023-09-12T02:15:12;38.35;;;20.58;;
64387;SDS011;50709;52.648;4.764;2023-09-12T02:17:37;36.97;;;20.08;;
64387;SDS011;50709;52.648;4.764;2023-09-12T02:20:04;37.20;;;20.48;;
64387;SDS011;50709;52.648;4.764;2023-09-12T02:22:31;38.25;;;20.50;;
64387;SDS011;50709;52.648;4.764;2023-09-12T02:24:57;40.50;;;21.38;;
64387;SDS011;50709;52.648;4.764;2023-09-12T02:27:22;40.80;;;19.70;;
64387;SDS011;50709;52.648;4.764;2023-09-12T02:29:48;37.65;;;20.88;;
64387;SDS011;50709;52.648;4.764;2023-09-12T02:32:13;38.97;;;20.60;;
64387;SDS011;50709;52.648;4.764;2023-09-12T02:34:39;37.90;;;20.65;;
64387;SDS011;50709;52.648;4.764;2023-09-12T02:37:04;41.05;;;20.02;;
64387;SDS011;50709;52.648;4.764;2023-09-12T02:39:29;44.78;;;21.80;;
64387;SDS011;50709;52.648;4.764;2023-09-12T02:41:55;42.45;;;21.08;;
64387;SDS011;50709;52.648;4.764;2023-09-12T02:44:20;44.70;;;22.77;;
64387;SDS011;50709;52.648;4.764;2023-09-12T02:46:46;44.65;;;22.17;;
64387;SDS011;50709;52.648;4.764;2023-09-12T02:49:11;46.67;;;23.15;;
64387;SDS011;50709;52.648;4.764;2023-09-12T02:51:39;45.42;;;21.77;;
64387;SDS011;50709;52.648;4.764;2023-09-12T02:54:06;45.38;;;22.83;;
64387;SDS011;50709;52.648;4.764;2023-09-12T02:56:31;46.35;;;22.75;;
64387;SDS011;50709;52.648;4.764;2023-09-12T02:58:57;49.33;;;23.65;;
64387;SDS011;50709;52.648;4.764;2023-09-12T03:01:22;51.28;;;24.98;;
64387;SDS011;50709;52.648;4.764;2023-09-12T03:03:51;48.00;;;23.70;;
64387;SDS011;50709;52.648;4.764;2023-09-12T03:06:16;51.08;;;23.65;;
64387;SDS011;50709;52.648;4.764;2023-09-12T03:08:43;52.42;;;24.88;;
64387;SDS011;50709;52.648;4.764;2023-09-12T03:11:09;47.85;;;24.40;;
64387;SDS011;50709;52.648;4.764;2023-09-12T03:13:39;52.15;;;24.88;;
64387;SDS011;50709;52.648;4.764;2023-09-12T03:16:09;53.17;;;24.15;;
64387;SDS011;50709;52.648;4.764;2023-09-12T03:18:36;51.42;;;25.42;;
64387;SDS011;50709;52.648;4.764;2023-09-12T03:21:01;48.25;;;25.38;;
64387;SDS011;50709;52.648;4.764;2023-09-12T03:23:27;48.75;;;24.13;;
64387;SDS011;50709;52.648;4.764;2023-09-12T03:25:52;44.50;;;22.75;;
64387;SDS011;50709;52.648;4.764;2023-09-12T03:28:18;45.67;;;22.85;;
64387;SDS011;50709;52.648;4.764;2023-09-12T03:30:43;45.67;;;23.02;;
64387;SDS011;50709;52.648;4.764;2023-09-12T03:33:09;52.88;;;23.73;;
64387;SDS011;50709;52.648;4.764;2023-09-12T03:35:34;48.28;;;22.95;;
64387;SDS011;50709;52.648;4.764;2023-09-12T03:38:00;49.45;;;23.63;;
64387;SDS011;50709;52.648;4.764;2023-09-12T03:40:28;48.55;;;23.52;;
64387;SDS011;50709;52.648;4.764;2023-09-12T03:42:55;42.47;;;21.92;;
64387;SDS011;50709;52.648;4.764;2023-09-12T03:45:20;50.22;;;23.77;;
64387;SDS011;50709;52.648;4.764;2023-09-12T03:47:46;43.95;;;21.58;;
64387;SDS011;50709;52.648;4.764;2023-09-12T03:50:12;46.05;;;22.45;;
64387;SDS011;50709;52.648;4.764;2023-09-12T03:52:38;45.28;;;22.25;;
64387;SDS011;50709;52.648;4.764;2023-09-12T03:55:04;43.58;;;23.02;;
64387;SDS011;50709;52.648;4.764;2023-09-12T03:57:29;45.28;;;22.83;;
64387;SDS011;50709;52.648;4.764;2023-09-12T03:59:55;45.28;;;23.33;;
64387;SDS011;50709;52.648;4.764;2023-09-12T04:02:20;43.47;;;22.35;;
64387;SDS011;50709;52.648;4.764;2023-09-12T04:04:45;43.97;;;21.60;;
64387;SDS011;50709;52.648;4.764;2023-09-12T04:07:11;43.35;;;22.40;;
64387;SDS011;50709;52.648;4.764;2023-09-12T04:09:36;47.47;;;22.25;;
64387;SDS011;50709;52.648;4.764;2023-09-12T04:12:02;45.67;;;22.05;;
64387;SDS011;50709;52.648;4.764;2023-09-12T04:14:27;44.55;;;20.42;;
64387;SDS011;50709;52.648;4.764;2023-09-12T04:16:54;48.05;;;22.23;;
64387;SDS011;50709;52.648;4.764;2023-09-12T04:19:19;43.17;;;20.65;;
64387;SDS011;50709;52.648;4.764;2023-09-12T04:21:45;42.92;;;20.92;;
64387;SDS011;50709;52.648;4.764;2023-09-12T04:24:10;47.05;;;22.05;;
64387;SDS011;50709;52.648;4.764;2023-09-12T04:26:36;45.38;;;22.23;;
64387;SDS011;50709;52.648;4.764;2023-09-12T04:29:01;43.75;;;22.33;;
64387;SDS011;50709;52.648;4.764;2023-09-12T04:31:27;39.08;;;21.08;;
64387;SDS011;50709;52.648;4.764;2023-09-12T04:33:52;41.50;;;20.83;;
64387;SDS011;50709;52.648;4.764;2023-09-12T04:36:19;43.47;;;22.55;;
64387;SDS011;50709;52.648;4.764;2023-09-12T04:38:45;48.13;;;22.60;;
64387;SDS011;50709;52.648;4.764;2023-09-12T04:41:11;43.25;;;21.42;;
64387;SDS011;50709;52.648;4.764;2023-09-12T04:43:40;45.47;;;21.58;;
64387;SDS011;50709;52.648;4.764;2023-09-12T04:46:06;43.67;;;20.55;;
64387;SDS011;50709;52.648;4.764;2023-09-12T04:48:31;44.22;;;21.25;;
64387;SDS011;50709;52.648;4.764;2023-09-12T04:50:56;41.08;;;20.55;;
64387;SDS011;50709;52.648;4.764;2023-09-12T04:53:22;43.80;;;20.38;;
64387;SDS011;50709;52.648;4.764;2023-09-12T04:55:47;38.42;;;19.23;;
64387;SDS011;50709;52.648;4.764;2023-09-12T04:58:13;38.65;;;19.10;;
64387;SDS011;50709;52.648;4.764;2023-09-12T05:00:39;43.10;;;19.27;;
64387;SDS011;50709;52.648;4.764;2023-09-12T05:03:04;39.47;;;19.67;;
64387;SDS011;50709;52.648;4.764;2023-09-12T05:05:30;42.65;;;21.27;;
64387;SDS011;50709;52.648;4.764;2023-09-12T05:07:55;42.88;;;19.52;;
64387;SDS011;50709;52.648;4.764;2023-09-12T05:10:21;42.30;;;18.85;;
64387;SDS011;50709;52.648;4.764;2023-09-12T05:12:46;37.78;;;18.17;;
64387;SDS011;50709;52.648;4.764;2023-09-12T05:15:11;39.85;;;19.35;;
64387;SDS011;50709;52.648;4.764;2023-09-12T05:17:37;41.25;;;18.85;;
64387;SDS011;50709;52.648;4.764;2023-09-12T05:20:05;38.65;;;19.55;;
64387;SDS011;50709;52.648;4.764;2023-09-12T05:22:31;38.00;;;18.33;;
64387;SDS011;50709;52.648;4.764;2023-09-12T05:24:58;39.53;;;18.52;;
64387;SDS011;50709;52.648;4.764;2023-09-12T05:27:23;36.60;;;17.63;;
64387;SDS011;50709;52.648;4.764;2023-09-12T05:29:49;37.45;;;17.73;;
64387;SDS011;50709;52.648;4.764;2023-09-12T05:32:14;36.80;;;17.90;;
64387;SDS011;50709;52.648;4.764;2023-09-12T05:34:41;32.70;;;17.42;;
64387;SDS011;50709;52.648;4.764;2023-09-12T05:37:07;37.58;;;18.00;;
64387;SDS011;50709;52.648;4.764;2023-09-12T05:39:32;36.42;;;19.02;;
64387;SDS011;50709;52.648;4.764;2023-09-12T05:41:57;37.28;;;17.85;;
64387;SDS011;50709;52.648;4.764;2023-09-12T05:44:23;34.53;;;17.17;;
64387;SDS011;50709;52.648;4.764;2023-09-12T05:46:48;37.05;;;18.35;;
64387;SDS011;50709;52.648;4.764;2023-09-12T05:49:14;31.67;;;16.83;;
64387;SDS011;50709;52.648;4.764;2023-09-12T05:51:40;32.38;;;16.77;;
64387;SDS011;50709;52.648;4.764;2023-09-12T05:54:06;32.42;;;17.08;;
64387;SDS011;50709;52.648;4.764;2023-09-12T05:56:33;30.67;;;17.13;;
64387;SDS011;50709;52.648;4.764;2023-09-12T05:58:58;33.83;;;17.80;;
64387;SDS011;50709;52.648;4.764;2023-09-12T06:01:24;33.13;;;16.60;;
64387;SDS011;50709;52.648;4.764;2023-09-12T06:03:49;28.95;;;16.20;;
64387;SDS011;50709;52.648;4.764;2023-09-12T06:06:15;34.65;;;17.42;;
64387;SDS011;50709;52.648;4.764;2023-09-12T06:08:40;32.92;;;17.02;;
64387;SDS011;50709;52.648;4.764;2023-09-12T06:11:06;31.40;;;15.35;;
64387;SDS011;50709;52.648;4.764;2023-09-12T06:13:31;28.30;;;16.35;;
64387;SDS011;50709;52.648;4.764;2023-09-12T06:15:57;30.05;;;16.10;;
64387;SDS011;50709;52.648;4.764;2023-09-12T06:18:23;31.23;;;15.85;;
64387;SDS011;50709;52.648;4.764;2023-09-12T06:20:49;31.33;;;15.23;;
64387;SDS011;50709;52.648;4.764;2023-09-12T06:23:15;27.75;;;15.63;;
64387;SDS011;50709;52.648;4.764;2023-09-12T06:25:40;32.33;;;15.82;;
64387;SDS011;50709;52.648;4.764;2023-09-12T06:28:08;30.98;;;16.27;;
64387;SDS011;50709;52.648;4.764;2023-09-12T06:30:35;32.70;;;16.40;;
64387;SDS011;50709;52.648;4.764;2023-09-12T06:33:00;35.28;;;17.42;;
64387;SDS011;50709;52.648;4.764;2023-09-12T06:35:25;32.72;;;16.65;;
64387;SDS011;50709;52.648;4.764;2023-09-12T06:37:51;32.22;;;17.00;;
64387;SDS011;50709;52.648;4.764;2023-09-12T06:40:16;34.45;;;17.75;;
64387;SDS011;50709;52.648;4.764;2023-09-12T06:42:42;35.42;;;17.23;;
64387;SDS011;50709;52.648;4.764;2023-09-12T06:45:08;31.73;;;17.45;;
64387;SDS011;50709;52.648;4.764;2023-09-12T06:47:34;31.70;;;16.52;;
64387;SDS011;50709;52.648;4.764;2023-09-12T06:49:59;28.60;;;16.05;;
64387;SDS011;50709;52.648;4.764;2023-09-12T06:52:25;28.25;;;16.33;;
64387;SDS011;50709;52.648;4.764;2023-09-12T06:54:50;28.77;;;16.88;;
64387;SDS011;50709;52.648;4.764;2023-09-12T06:57:16;29.67;;;16.70;;
64387;SDS011;50709;52.648;4.764;2023-09-12T06:59:42;29.92;;;15.68;;
64387;SDS011;50709;52.648;4.764;2023-09-12T07:02:07;32.70;;;15.75;;
64387;SDS011;50709;52.648;4.764;2023-09-12T07:04:33;30.30;;;15.57;;
64387;SDS011;50709;52.648;4.764;2023-09-12T07:06:59;29.20;;;15.77;;
64387;SDS011;50709;52.648;4.764;2023-09-12T07:09:24;31.13;;;16.75;;
64387;SDS011;50709;52.648;4.764;2023-09-12T07:11:50;32.75;;;17.27;;
64387;SDS011;50709;52.648;4.764;2023-09-12T07:14:15;37.20;;;17.75;;
64387;SDS011;50709;52.648;4.764;2023-09-12T07:16:41;31.88;;;17.15;;
64387;SDS011;50709;52.648;4.764;2023-09-12T07:19:06;34.60;;;17.33;;
64387;SDS011;50709;52.648;4.764;2023-09-12T07:21:32;30.90;;;16.67;;
64387;SDS011;50709;52.648;4.764;2023-09-12T07:23:57;30.77;;;16.85;;
64387;SDS011;50709;52.648;4.764;2023-09-12T07:26:23;33.25;;;16.48;;
64387;SDS011;50709;52.648;4.764;2023-09-12T07:28:48;35.25;;;16.70;;
64387;SDS011;50709;52.648;4.764;2023-09-12T07:31:14;33.38;;;17.10;;
64387;SDS011;50709;52.648;4.764;2023-09-12T07:33:39;33.47;;;16.17;;
64387;SDS011;50709;52.648;4.764;2023-09-12T07:36:06;32.70;;;15.93;;
64387;SDS011;50709;52.648;4.764;2023-09-12T07:38:32;34.22;;;16.33;;
64387;SDS011;50709;52.648;4.764;2023-09-12T07:41:00;31.63;;;15.68;;
64387;SDS011;50709;52.648;4.764;2023-09-12T07:43:27;27.95;;;15.80;;
64387;SDS011;50709;52.648;4.764;2023-09-12T07:45:56;33.45;;;15.32;;
64387;SDS011;50709;52.648;4.764;2023-09-12T07:48:22;34.38;;;16.88;;
64387;SDS011;50709;52.648;4.764;2023-09-12T07:50:48;30.55;;;17.10;;
64387;SDS011;50709;52.648;4.764;2023-09-12T07:53:14;35.08;;;16.48;;
64387;SDS011;50709;52.648;4.764;2023-09-12T07:55:39;31.08;;;16.63;;
64387;SDS011;50709;52.648;4.764;2023-09-12T07:58:11;36.63;;;17.20;;
64387;SDS011;50709;52.648;4.764;2023-09-12T08:00:46;28.80;;;15.02;;
64387;SDS011;50709;52.648;4.764;2023-09-12T08:03:12;29.13;;;14.60;;
64387;SDS011;50709;52.648;4.764;2023-09-12T08:05:37;30.33;;;15.27;;
64387;SDS011;50709;52.648;4.764;2023-09-12T08:08:03;31.95;;;15.95;;
64387;SDS011;50709;52.648;4.764;2023-09-12T08:10:29;28.77;;;14.90;;
64387;SDS011;50709;52.648;4.764;2023-09-12T08:12:54;31.55;;;16.25;;
64387;SDS011;50709;52.648;4.764;2023-09-12T08:15:20;28.75;;;15.73;;
64387;SDS011;50709;52.648;4.764;2023-09-12T08:17:45;30.52;;;15.80;;
64387;SDS011;50709;52.648;4.764;2023-09-12T08:20:16;28.40;;;15.27;;
64387;SDS011;50709;52.648;4.764;2023-09-12T08:22:42;34.20;;;16.20;;
64387;SDS011;50709;52.648;4.764;2023-09-12T08:25:08;29.92;;;15.02;;
64387;SDS011;50709;52.648;4.764;2023-09-12T08:27:34;25.42;;;14.20;;
64387;SDS011;50709;52.648;4.764;2023-09-12T08:30:00;24.90;;;13.93;;
64387;SDS011;50709;52.648;4.764;2023-09-12T08:32:26;28.42;;;14.93;;
64387;SDS011;50709;52.648;4.764;2023-09-12T08:34:51;27.52;;;13.65;;
64387;SDS011;50709;52.648;4.764;2023-09-12T08:37:16;28.88;;;14.95;;
64387;SDS011;50709;52.648;4.764;2023-09-12T08:39:43;22.08;;;12.95;;
64387;SDS011;50709;52.648;4.764;2023-09-12T08:42:11;23.90;;;13.10;;
64387;SDS011;50709;52.648;4.764;2023-09-12T08:44:38;28.52;;;13.13;;
64387;SDS011;50709;52.648;4.764;2023-09-12T08:47:06;22.90;;;11.98;;
64387;SDS011;50709;52.648;4.764;2023-09-12T08:49:33;20.05;;;11.90;;
64387;SDS011;50709;52.648;4.764;2023-09-12T08:52:00;20.48;;;12.13;;
64387;SDS011;50709;52.648;4.764;2023-09-12T08:54:25;20.73;;;10.57;;
64387;SDS011;50709;52.648;4.764;2023-09-12T08:56:51;23.40;;;11.85;;
64387;SDS011;50709;52.648;4.764;2023-09-12T08:59:17;21.73;;;12.82;;
64387;SDS011;50709;52.648;4.764;2023-09-12T09:01:42;19.85;;;10.77;;
64387;SDS011;50709;52.648;4.764;2023-09-12T09:04:11;21.90;;;11.05;;
64387;SDS011;50709;52.648;4.764;2023-09-12T09:06:36;19.33;;;11.25;;
64387;SDS011;50709;52.648;4.764;2023-09-12T09:09:05;20.70;;;11.70;;
64387;SDS011;50709;52.648;4.764;2023-09-12T09:11:31;22.48;;;12.18;;
64387;SDS011;50709;52.648;4.764;2023-09-12T09:13:57;19.45;;;11.63;;
64387;SDS011;50709;52.648;4.764;2023-09-12T09:16:23;20.85;;;10.90;;
64387;SDS011;50709;52.648;4.764;2023-09-12T09:18:52;24.33;;;11.43;;
64387;SDS011;50709;52.648;4.764;2023-09-12T09:21:18;17.30;;;10.25;;
64387;SDS011;50709;52.648;4.764;2023-09-12T09:23:45;18.08;;;9.73;;
64387;SDS011;50709;52.648;4.764;2023-09-12T09:26:11;20.55;;;10.80;;
64387;SDS011;50709;52.648;4.764;2023-09-12T09:28:37;19.77;;;10.82;;
64387;SDS011;50709;52.648;4.764;2023-09-12T09:31:04;18.05;;;10.27;;
64387;SDS011;50709;52.648;4.764;2023-09-12T09:33:35;19.85;;;11.07;;
64387;SDS011;50709;52.648;4.764;2023-09-12T09:36:04;22.33;;;11.07;;
64387;SDS011;50709;52.648;4.764;2023-09-12T09:38:31;19.73;;;10.65;;
64387;SDS011;50709;52.648;4.764;2023-09-12T09:40:56;22.05;;;10.43;;
64387;SDS011;50709;52.648;4.764;2023-09-12T09:43:22;17.20;;;10.10;;
64387;SDS011;50709;52.648;4.764;2023-09-12T09:45:49;17.00;;;10.00;;
64387;SDS011;50709;52.648;4.764;2023-09-12T09:48:22;20.30;;;11.00;;
64387;SDS011;50709;52.648;4.764;2023-09-12T09:50:49;16.10;;;9.73;;
64387;SDS011;50709;52.648;4.764;2023-09-12T09:53:16;18.98;;;9.85;;
64387;SDS011;50709;52.648;4.764;2023-09-12T09:55:42;18.05;;;8.95;;
64387;SDS011;50709;52.648;4.764;2023-09-12T09:58:07;18.85;;;9.90;;
64387;SDS011;50709;52.648;4.764;2023-09-12T10:00:33;19.20;;;9.23;;
64387;SDS011;50709;52.648;4.764;2023-09-12T10:03:02;19.85;;;10.38;;
64387;SDS011;50709;52.648;4.764;2023-09-12T10:05:31;18.90;;;10.25;;
64387;SDS011;50709;52.648;4.764;2023-09-12T10:07:57;17.90;;;8.85;;
64387;SDS011;50709;52.648;4.764;2023-09-12T10:10:25;17.30;;;8.65;;
64387;SDS011;50709;52.648;4.764;2023-09-12T10:12:57;16.20;;;9.27;;
64387;SDS011;50709;52.648;4.764;2023-09-12T10:15:26;14.45;;;8.43;;
64387;SDS011;50709;52.648;4.764;2023-09-12T10:17:58;15.18;;;8.50;;
64387;SDS011;50709;52.648;4.764;2023-09-12T10:20:28;17.45;;;9.38;;
64387;SDS011;50709;52.648;4.764;2023-09-12T10:23:03;14.00;;;8.35;;
64387;SDS011;50709;52.648;4.764;2023-09-12T10:25:36;15.75;;;8.95;;
64387;SDS011;50709;52.648;4.764;2023-09-12T10:28:03;16.90;;;9.60;;
64387;SDS011;50709;52.648;4.764;2023-09-12T10:30:30;15.98;;;10.10;;
64387;SDS011;50709;52.648;4.764;2023-09-12T10:32:56;18.52;;;9.45;;
64387;SDS011;50709;52.648;4.764;2023-09-12T10:35:22;14.98;;;9.93;;
64387;SDS011;50709;52.648;4.764;2023-09-12T10:37:48;16.00;;;8.40;;
64387;SDS011;50709;52.648;4.764;2023-09-12T10:40:16;17.58;;;9.07;;
64387;SDS011;50709;52.648;4.764;2023-09-12T10:42:42;14.52;;;9.10;;
64387;SDS011;50709;52.648;4.764;2023-09-12T10:45:09;19.80;;;9.63;;
64387;SDS011;50709;52.648;4.764;2023-09-12T10:47:35;15.40;;;8.45;;
64387;SDS011;50709;52.648;4.764;2023-09-12T10:50:01;19.13;;;10.15;;
64387;SDS011;50709;52.648;4.764;2023-09-12T10:52:27;14.75;;;8.68;;
64387;SDS011;50709;52.648;4.764;2023-09-12T10:54:53;17.23;;;8.88;;
64387;SDS011;50709;52.648;4.764;2023-09-12T10:57:19;14.75;;;8.20;;
64387;SDS011;50709;52.648;4.764;2023-09-12T11:02:27;12.85;;;7.95;;
64387;SDS011;50709;52.648;4.764;2023-09-12T11:05:04;13.02;;;7.63;;
64387;SDS011;50709;52.648;4.764;2023-09-12T11:07:50;13.18;;;7.93;;
64387;SDS011;50709;52.648;4.764;2023-09-12T11:10:16;13.85;;;7.53;;
64387;SDS011;50709;52.648;4.764;2023-09-12T11:12:52;16.15;;;8.40;;
64387;SDS011;50709;52.648;4.764;2023-09-12T11:15:20;13.73;;;7.45;;
64387;SDS011;50709;52.648;4.764;2023-09-12T11:17:47;13.00;;;7.22;;
64387;SDS011;50709;52.648;4.764;2023-09-12T11:20:15;15.43;;;8.25;;
64387;SDS011;50709;52.648;4.764;2023-09-12T11:22:45;13.70;;;7.80;;
64387;SDS011;50709;52.648;4.764;2023-09-12T11:30:22;11.57;;;7.47;;
64387;SDS011;50709;52.648;4.764;2023-09-12T11:32:50;9.98;;;6.90;;
64387;SDS011;50709;52.648;4.764;2023-09-12T11:35:21;12.13;;;7.35;;
64387;SDS011;50709;52.648;4.764;2023-09-12T11:37:53;12.02;;;7.18;;
64387;SDS011;50709;52.648;4.764;2023-09-12T11:43:06;11.45;;;6.85;;
64387;SDS011;50709;52.648;4.764;2023-09-12T11:45:31;12.27;;;7.22;;
64387;SDS011;50709;52.648;4.764;2023-09-12T11:47:58;13.15;;;8.15;;
64387;SDS011;50709;52.648;4.764;2023-09-12T11:50:30;10.75;;;6.47;;
64387;SDS011;50709;52.648;4.764;2023-09-12T11:52:59;10.43;;;6.82;;
64387;SDS011;50709;52.648;4.764;2023-09-12T11:55:25;11.27;;;6.07;;
64387;SDS011;50709;52.648;4.764;2023-09-12T11:57:55;11.85;;;7.07;;
64387;SDS011;50709;52.648;4.764;2023-09-12T12:00:21;10.93;;;6.18;;
64387;SDS011;50709;52.648;4.764;2023-09-12T12:02:46;12.93;;;6.40;;
64387;SDS011;50709;52.648;4.764;2023-09-12T12:05:12;11.30;;;6.47;;
64387;SDS011;50709;52.648;4.764;2023-09-12T12:07:38;11.57;;;6.63;;
64387;SDS011;50709;52.648;4.764;2023-09-12T12:10:04;11.82;;;6.50;;
64387;SDS011;50709;52.648;4.764;2023-09-12T12:12:30;8.63;;;6.03;;
64387;SDS011;50709;52.648;4.764;2023-09-12T12:14:55;9.95;;;6.18;;
64387;SDS011;50709;52.648;4.764;2023-09-12T12:17:21;9.80;;;6.47;;
64387;SDS011;50709;52.648;4.764;2023-09-12T12:19:46;11.10;;;6.97;;
64387;SDS011;50709;52.648;4.764;2023-09-12T12:22:12;10.38;;;6.47;;
64387;SDS011;50709;52.648;4.764;2023-09-12T12:24:41;8.27;;;5.57;;
64387;SDS011;50709;52.648;4.764;2023-09-12T12:27:11;11.07;;;5.78;;
64387;SDS011;50709;52.648;4.764;2023-09-12T12:29:37;9.48;;;5.60;;
64387;SDS011;50709;52.648;4.764;2023-09-12T12:32:04;8.88;;;5.57;;
64387;SDS011;50709;52.648;4.764;2023-09-12T12:34:31;10.30;;;5.82;;
64387;SDS011;50709;52.648;4.764;2023-09-12T12:36:56;9.55;;;5.75;;
64387;SDS011;50709;52.648;4.764;2023-09-12T12:39:22;8.75;;;5.00;;
64387;SDS011;50709;52.648;4.764;2023-09-12T12:41:49;7.85;;;5.15;;
64387;SDS011;50709;52.648;4.764;2023-09-12T12:44:18;7.72;;;5.10;;
64387;SDS011;50709;52.648;4.764;2023-09-12T12:46:52;10.48;;;5.47;;
64387;SDS011;50709;52.648;4.764;2023-09-12T12:49:19;7.30;;;4.90;;
64387;SDS011;50709;52.648;4.764;2023-09-12T12:51:45;8.70;;;5.07;;
64387;SDS011;50709;52.648;4.764;2023-09-12T12:54:11;8.02;;;5.18;;
64387;SDS011;50709;52.648;4.764;2023-09-12T12:56:37;9.20;;;5.13;;
64387;SDS011;50709;52.648;4.764;2023-09-12T12:59:04;9.73;;;5.40;;
64387;SDS011;50709;52.648;4.764;2023-09-12T13:01:33;8.57;;;5.40;;
64387;SDS011;50709;52.648;4.764;2023-09-12T13:03:59;7.85;;;5.22;;
64387;SDS011;50709;52.648;4.764;2023-09-12T13:06:24;7.45;;;4.95;;
64387;SDS011;50709;52.648;4.764;2023-09-12T13:08:52;7.07;;;4.95;;
64387;SDS011;50709;52.648;4.764;2023-09-12T13:11:17;9.10;;;5.45;;
64387;SDS011;50709;52.648;4.764;2023-09-12T13:13:43;8.90;;;5.32;;
64387;SDS011;50709;52.648;4.764;2023-09-12T13:16:10;7.75;;;5.20;;
64387;SDS011;50709;52.648;4.764;2023-09-12T13:18:38;9.20;;;5.82;;
64387;SDS011;50709;52.648;4.764;2023-09-12T13:21:04;9.57;;;5.68;;
64387;SDS011;50709;52.648;4.764;2023-09-12T13:23:30;8.13;;;4.80;;
64387;SDS011;50709;52.648;4.764;2023-09-12T13:25:56;7.05;;;4.53;;
64387;SDS011;50709;52.648;4.764;2023-09-12T13:28:22;8.52;;;4.80;;
64387;SDS011;50709;52.648;4.764;2023-09-12T13:30:53;9.45;;;4.80;;
64387;SDS011;50709;52.648;4.764;2023-09-12T13:33:19;7.07;;;4.53;;
64387;SDS011;50709;52.648;4.764;2023-09-12T13:35:46;6.40;;;4.68;;
64387;SDS011;50709;52.648;4.764;2023-09-12T13:38:15;7.57;;;5.03;;
64387;SDS011;50709;52.648;4.764;2023-09-12T13:40:43;7.78;;;5.00;;
64387;SDS011;50709;52.648;4.764;2023-09-12T13:43:10;7.47;;;5.07;;
64387;SDS011;50709;52.648;4.764;2023-09-12T13:45:36;8.60;;;5.53;;
64387;SDS011;50709;52.648;4.764;2023-09-12T13:48:02;7.10;;;4.95;;
64387;SDS011;50709;52.648;4.764;2023-09-12T13:50:28;7.82;;;4.65;;
64387;SDS011;50709;52.648;4.764;2023-09-12T13:52:54;11.13;;;5.00;;
64387;SDS011;50709;52.648;4.764;2023-09-12T13:55:21;7.15;;;5.22;;
64387;SDS011;50709;52.648;4.764;2023-09-12T13:57:47;7.45;;;4.72;;
64387;SDS011;50709;52.648;4.764;2023-09-12T14:00:12;7.28;;;5.07;;
64387;SDS011;50709;52.648;4.764;2023-09-12T14:02:38;7.97;;;5.00;;
64387;SDS011;50709;52.648;4.764;2023-09-12T14:05:03;6.85;;;4.70;;
64387;SDS011;50709;52.648;4.764;2023-09-12T14:07:29;6.88;;;4.40;;
64387;SDS011;50709;52.648;4.764;2023-09-12T14:09:54;7.85;;;4.82;;
64387;SDS011;50709;52.648;4.764;2023-09-12T14:12:22;7.82;;;4.60;;
64387;SDS011;50709;52.648;4.764;2023-09-12T14:14:48;7.22;;;5.00;;
64387;SDS011;50709;52.648;4.764;2023-09-12T14:17:13;9.50;;;5.03;;
64387;SDS011;50709;52.648;4.764;2023-09-12T14:19:39;8.68;;;6.15;;
64387;SDS011;50709;52.648;4.764;2023-09-12T14:22:04;7.53;;;4.90;;
64387;SDS011;50709;52.648;4.764;2023-09-12T14:24:30;10.02;;;6.15;;
64387;SDS011;50709;52.648;4.764;2023-09-12T14:26:55;12.07;;;7.10;;
64387;SDS011;50709;52.648;4.764;2023-09-12T14:29:20;9.13;;;5.85;;
64387;SDS011;50709;52.648;4.764;2023-09-12T14:31:46;9.95;;;6.28;;
64387;SDS011;50709;52.648;4.764;2023-09-12T14:34:15;9.38;;;6.03;;
64387;SDS011;50709;52.648;4.764;2023-09-12T14:36:41;8.35;;;5.55;;
64387;SDS011;50709;52.648;4.764;2023-09-12T14:39:07;8.10;;;5.40;;